sensor_id;sensor_type;location;lat;lon;timestamp;P1;durP1;ratioP1;P2;durP2;ratioP2
34573;SDS011;20809;49.594;8.734;2022-08-19T00:00:21;11.20;;;10.13;;
34573;SDS011;20809;49.594;8.734;2022-08-19T00:03:21;12.20;;;11.02;;
34573;SDS011;20809;49.594;8.734;2022-08-19T00:06:22;10.75;;;9.65;;
34573;SDS011;20809;49.594;8.734;2022-08-19T00:09:23;10.90;;;9.77;;
34573;SDS011;20809;49.594;8.734;2022-08-19T00:12:25;11.15;;;9.95;;
34573;SDS011;20809;49.594;8.734;2022-08-19T00:15:26;12.45;;;11.25;;
34573;SDS011;20809;49.594;8.734;2022-08-19T00:18:27;10.43;;;9.27;;
34573;SDS011;20809;49.594;8.734;2022-08-19T00:21:28;11.02;;;9.85;;
34573;SDS011;20809;49.594;8.734;2022-08-19T00:24:29;11.57;;;10.38;;
34573;SDS011;20809;49.594;8.734;2022-08-19T00:27:29;13.20;;;11.88;;
34573;SDS011;20809;49.594;8.734;2022-08-19T00:30:30;12.70;;;10.55;;
34573;SDS011;20809;49.594;8.734;2022-08-19T00:33:31;12.20;;;10.93;;
34573;SDS011;20809;49.594;8.734;2022-08-19T00:36:33;11.93;;;10.70;;
34573;SDS011;20809;49.594;8.734;2022-08-19T00:39:33;11.60;;;10.43;;
34573;SDS011;20809;49.594;8.734;2022-08-19T00:42:34;11.63;;;10.48;;
34573;SDS011;20809;49.594;8.734;2022-08-19T00:45:35;13.18;;;11.18;;
34573;SDS011;20809;49.594;8.734;2022-08-19T00:48:36;13.32;;;11.38;;
34573;SDS011;20809;49.594;8.734;2022-08-19T00:51:37;13.65;;;10.88;;
34573;SDS011;20809;49.594;8.734;2022-08-19T00:54:38;11.23;;;10.07;;
34573;SDS011;20809;49.594;8.734;2022-08-19T00:59:10;13.10;;;11.40;;
34573;SDS011;20809;49.594;8.734;2022-08-19T01:02:15;12.23;;;11.02;;
34573;SDS011;20809;49.594;8.734;2022-08-19T01:05:20;13.90;;;11.40;;
34573;SDS011;20809;49.594;8.734;2022-08-19T01:08:30;11.40;;;10.05;;
34573;SDS011;20809;49.594;8.734;2022-08-19T01:11:31;12.38;;;11.13;;
34573;SDS011;20809;49.594;8.734;2022-08-19T01:14:36;11.65;;;10.45;;
34573;SDS011;20809;49.594;8.734;2022-08-19T01:17:39;13.02;;;11.00;;
34573;SDS011;20809;49.594;8.734;2022-08-19T01:20:41;13.30;;;11.50;;
34573;SDS011;20809;49.594;8.734;2022-08-19T01:23:43;12.93;;;11.55;;
34573;SDS011;20809;49.594;8.734;2022-08-19T01:26:47;12.23;;;10.90;;
34573;SDS011;20809;49.594;8.734;2022-08-19T01:29:51;12.82;;;10.25;;
34573;SDS011;20809;49.594;8.734;2022-08-19T01:32:52;12.02;;;10.43;;
34573;SDS011;20809;49.594;8.734;2022-08-19T01:35:54;11.77;;;10.57;;
34573;SDS011;20809;49.594;8.734;2022-08-19T01:39:17;11.35;;;10.25;;
34573;SDS011;20809;49.594;8.734;2022-08-19T01:42:21;13.50;;;12.07;;
34573;SDS011;20809;49.594;8.734;2022-08-19T01:45:23;12.52;;;11.23;;
34573;SDS011;20809;49.594;8.734;2022-08-19T01:48:26;13.77;;;11.57;;
34573;SDS011;20809;49.594;8.734;2022-08-19T01:51:30;12.65;;;11.15;;
34573;SDS011;20809;49.594;8.734;2022-08-19T01:54:32;14.02;;;11.30;;
34573;SDS011;20809;49.594;8.734;2022-08-19T02:00:34;13.27;;;10.50;;
34573;SDS011;20809;49.594;8.734;2022-08-19T02:03:34;13.60;;;12.15;;
34573;SDS011;20809;49.594;8.734;2022-08-19T02:06:35;14.25;;;11.73;;
34573;SDS011;20809;49.594;8.734;2022-08-19T02:09:39;15.23;;;11.48;;
34573;SDS011;20809;49.594;8.734;2022-08-19T02:12:40;14.73;;;11.93;;
34573;SDS011;20809;49.594;8.734;2022-08-19T02:15:41;13.80;;;11.85;;
34573;SDS011;20809;49.594;8.734;2022-08-19T02:18:42;13.48;;;12.02;;
34573;SDS011;20809;49.594;8.734;2022-08-19T02:25:13;17.45;;;12.25;;
34573;SDS011;20809;49.594;8.734;2022-08-19T02:28:15;14.05;;;11.65;;
34573;SDS011;20809;49.594;8.734;2022-08-19T02:31:17;14.10;;;11.68;;
34573;SDS011;20809;49.594;8.734;2022-08-19T02:34:19;13.65;;;10.90;;
34573;SDS011;20809;49.594;8.734;2022-08-19T02:37:20;13.60;;;11.57;;
34573;SDS011;20809;49.594;8.734;2022-08-19T02:40:46;14.35;;;11.05;;
34573;SDS011;20809;49.594;8.734;2022-08-19T02:43:50;13.80;;;11.05;;
34573;SDS011;20809;49.594;8.734;2022-08-19T02:46:51;14.23;;;12.57;;
34573;SDS011;20809;49.594;8.734;2022-08-19T02:49:52;14.93;;;11.43;;
34573;SDS011;20809;49.594;8.734;2022-08-19T02:52:53;12.82;;;11.25;;
34573;SDS011;20809;49.594;8.734;2022-08-19T02:55:56;13.52;;;11.70;;
34573;SDS011;20809;49.594;8.734;2022-08-19T02:58:58;13.90;;;12.43;;
34573;SDS011;20809;49.594;8.734;2022-08-19T03:01:59;13.98;;;12.13;;
34573;SDS011;20809;49.594;8.734;2022-08-19T03:05:05;13.68;;;11.88;;
34573;SDS011;20809;49.594;8.734;2022-08-19T03:08:16;14.10;;;11.73;;
34573;SDS011;20809;49.594;8.734;2022-08-19T03:11:19;13.50;;;11.32;;
34573;SDS011;20809;49.594;8.734;2022-08-19T03:14:34;17.77;;;12.90;;
34573;SDS011;20809;49.594;8.734;2022-08-19T03:17:36;14.80;;;11.68;;
34573;SDS011;20809;49.594;8.734;2022-08-19T03:20:43;14.75;;;12.30;;
34573;SDS011;20809;49.594;8.734;2022-08-19T03:23:46;14.10;;;11.85;;
34573;SDS011;20809;49.594;8.734;2022-08-19T03:26:50;15.98;;;12.73;;
34573;SDS011;20809;49.594;8.734;2022-08-19T03:29:52;14.80;;;12.10;;
34573;SDS011;20809;49.594;8.734;2022-08-19T03:32:53;14.13;;;11.88;;
34573;SDS011;20809;49.594;8.734;2022-08-19T03:36:05;14.18;;;11.65;;
34573;SDS011;20809;49.594;8.734;2022-08-19T03:39:09;14.85;;;11.77;;
34573;SDS011;20809;49.594;8.734;2022-08-19T03:42:13;14.30;;;12.15;;
34573;SDS011;20809;49.594;8.734;2022-08-19T03:45:17;17.30;;;11.95;;
34573;SDS011;20809;49.594;8.734;2022-08-19T03:48:18;14.80;;;11.98;;
34573;SDS011;20809;49.594;8.734;2022-08-19T03:51:20;14.15;;;12.18;;
34573;SDS011;20809;49.594;8.734;2022-08-19T03:54:23;13.45;;;11.70;;
34573;SDS011;20809;49.594;8.734;2022-08-19T03:57:25;14.93;;;12.70;;
34573;SDS011;20809;49.594;8.734;2022-08-19T04:00:26;15.50;;;12.20;;
34573;SDS011;20809;49.594;8.734;2022-08-19T04:03:26;15.20;;;12.40;;
34573;SDS011;20809;49.594;8.734;2022-08-19T04:06:29;14.68;;;11.40;;
34573;SDS011;20809;49.594;8.734;2022-08-19T04:09:34;16.20;;;12.32;;
34573;SDS011;20809;49.594;8.734;2022-08-19T04:12:36;14.45;;;11.65;;
34573;SDS011;20809;49.594;8.734;2022-08-19T04:15:43;16.92;;;11.90;;
34573;SDS011;20809;49.594;8.734;2022-08-19T04:18:46;13.98;;;12.00;;
34573;SDS011;20809;49.594;8.734;2022-08-19T04:21:53;16.42;;;12.35;;
34573;SDS011;20809;49.594;8.734;2022-08-19T04:24:55;16.20;;;12.27;;
34573;SDS011;20809;49.594;8.734;2022-08-19T04:27:56;13.80;;;11.65;;
34573;SDS011;20809;49.594;8.734;2022-08-19T04:30:59;14.43;;;12.80;;
34573;SDS011;20809;49.594;8.734;2022-08-19T04:34:00;15.45;;;12.57;;
34573;SDS011;20809;49.594;8.734;2022-08-19T04:37:05;16.30;;;12.25;;
34573;SDS011;20809;49.594;8.734;2022-08-19T04:40:11;15.85;;;12.57;;
34573;SDS011;20809;49.594;8.734;2022-08-19T04:43:30;16.58;;;13.25;;
34573;SDS011;20809;49.594;8.734;2022-08-19T04:46:32;17.23;;;14.73;;
34573;SDS011;20809;49.594;8.734;2022-08-19T04:49:33;15.90;;;13.70;;
34573;SDS011;20809;49.594;8.734;2022-08-19T04:52:34;15.23;;;12.60;;
34573;SDS011;20809;49.594;8.734;2022-08-19T04:55:37;16.27;;;13.02;;
34573;SDS011;20809;49.594;8.734;2022-08-19T04:58:42;14.75;;;12.70;;
34573;SDS011;20809;49.594;8.734;2022-08-19T05:01:44;15.02;;;11.60;;
34573;SDS011;20809;49.594;8.734;2022-08-19T05:04:48;15.40;;;11.73;;
34573;SDS011;20809;49.594;8.734;2022-08-19T05:07:49;14.85;;;11.93;;
34573;SDS011;20809;49.594;8.734;2022-08-19T05:10:51;15.73;;;12.05;;
34573;SDS011;20809;49.594;8.734;2022-08-19T05:13:52;16.38;;;12.63;;
34573;SDS011;20809;49.594;8.734;2022-08-19T05:16:53;12.60;;;11.32;;
34573;SDS011;20809;49.594;8.734;2022-08-19T05:19:54;12.93;;;11.45;;
34573;SDS011;20809;49.594;8.734;2022-08-19T05:23:13;12.98;;;10.52;;
34573;SDS011;20809;49.594;8.734;2022-08-19T05:26:15;15.95;;;12.60;;
34573;SDS011;20809;49.594;8.734;2022-08-19T05:29:17;16.35;;;12.00;;
34573;SDS011;20809;49.594;8.734;2022-08-19T05:32:20;15.25;;;11.27;;
34573;SDS011;20809;49.594;8.734;2022-08-19T05:35:23;15.68;;;12.60;;
34573;SDS011;20809;49.594;8.734;2022-08-19T05:41:27;14.57;;;12.02;;
34573;SDS011;20809;49.594;8.734;2022-08-19T05:44:29;20.35;;;14.10;;
34573;SDS011;20809;49.594;8.734;2022-08-19T05:47:32;16.98;;;12.27;;
34573;SDS011;20809;49.594;8.734;2022-08-19T05:50:32;16.88;;;11.82;;
34573;SDS011;20809;49.594;8.734;2022-08-19T05:53:35;14.57;;;11.65;;
34573;SDS011;20809;49.594;8.734;2022-08-19T05:56:37;12.60;;;11.00;;
34573;SDS011;20809;49.594;8.734;2022-08-19T05:59:38;12.02;;;10.70;;
34573;SDS011;20809;49.594;8.734;2022-08-19T06:02:39;13.18;;;10.63;;
34573;SDS011;20809;49.594;8.734;2022-08-19T06:05:43;13.63;;;12.23;;
34573;SDS011;20809;49.594;8.734;2022-08-19T06:08:43;13.13;;;10.73;;
34573;SDS011;20809;49.594;8.734;2022-08-19T06:11:51;14.23;;;11.13;;
34573;SDS011;20809;49.594;8.734;2022-08-19T06:14:54;12.13;;;10.15;;
34573;SDS011;20809;49.594;8.734;2022-08-19T06:17:58;15.07;;;12.70;;
34573;SDS011;20809;49.594;8.734;2022-08-19T06:21:01;12.05;;;10.70;;
34573;SDS011;20809;49.594;8.734;2022-08-19T06:24:04;12.25;;;10.05;;
34573;SDS011;20809;49.594;8.734;2022-08-19T06:27:07;10.15;;;9.13;;
34573;SDS011;20809;49.594;8.734;2022-08-19T06:30:08;11.63;;;9.13;;
34573;SDS011;20809;49.594;8.734;2022-08-19T06:33:10;10.77;;;9.25;;
34573;SDS011;20809;49.594;8.734;2022-08-19T06:36:21;10.70;;;9.18;;
34573;SDS011;20809;49.594;8.734;2022-08-19T06:39:35;11.40;;;9.50;;
34573;SDS011;20809;49.594;8.734;2022-08-19T06:42:42;9.13;;;8.23;;
34573;SDS011;20809;49.594;8.734;2022-08-19T06:45:43;10.07;;;8.82;;
34573;SDS011;20809;49.594;8.734;2022-08-19T06:48:44;12.25;;;9.77;;
34573;SDS011;20809;49.594;8.734;2022-08-19T06:54:49;10.85;;;9.60;;
34573;SDS011;20809;49.594;8.734;2022-08-19T06:57:50;9.82;;;8.77;;
34573;SDS011;20809;49.594;8.734;2022-08-19T07:00:53;10.57;;;9.13;;
34573;SDS011;20809;49.594;8.734;2022-08-19T07:03:53;11.00;;;9.73;;
34573;SDS011;20809;49.594;8.734;2022-08-19T07:10:00;10.80;;;9.68;;
34573;SDS011;20809;49.594;8.734;2022-08-19T07:13:02;10.88;;;9.20;;
34573;SDS011;20809;49.594;8.734;2022-08-19T07:16:04;10.25;;;8.95;;
34573;SDS011;20809;49.594;8.734;2022-08-19T07:19:05;12.30;;;8.93;;
34573;SDS011;20809;49.594;8.734;2022-08-19T07:22:07;13.20;;;8.73;;
34573;SDS011;20809;49.594;8.734;2022-08-19T07:25:08;10.18;;;8.48;;
34573;SDS011;20809;49.594;8.734;2022-08-19T07:28:09;13.63;;;8.75;;
34573;SDS011;20809;49.594;8.734;2022-08-19T07:31:13;10.60;;;7.38;;
34573;SDS011;20809;49.594;8.734;2022-08-19T07:34:18;10.35;;;7.50;;
34573;SDS011;20809;49.594;8.734;2022-08-19T07:40:19;9.70;;;7.93;;
34573;SDS011;20809;49.594;8.734;2022-08-19T07:43:20;12.45;;;8.77;;
34573;SDS011;20809;49.594;8.734;2022-08-19T07:46:25;7.68;;;6.97;;
34573;SDS011;20809;49.594;8.734;2022-08-19T07:49:26;9.68;;;8.05;;
34573;SDS011;20809;49.594;8.734;2022-08-19T07:52:28;8.65;;;7.10;;
34573;SDS011;20809;49.594;8.734;2022-08-19T07:55:31;8.98;;;8.00;;
34573;SDS011;20809;49.594;8.734;2022-08-19T07:58:33;13.02;;;7.70;;
34573;SDS011;20809;49.594;8.734;2022-08-19T08:01:36;10.00;;;8.40;;
34573;SDS011;20809;49.594;8.734;2022-08-19T08:04:39;11.65;;;7.95;;
34573;SDS011;20809;49.594;8.734;2022-08-19T08:07:58;9.00;;;8.10;;
34573;SDS011;20809;49.594;8.734;2022-08-19T08:11:19;8.00;;;7.22;;
34573;SDS011;20809;49.594;8.734;2022-08-19T08:14:24;10.75;;;7.80;;
34573;SDS011;20809;49.594;8.734;2022-08-19T08:17:30;8.32;;;7.53;;
34573;SDS011;20809;49.594;8.734;2022-08-19T08:20:35;7.60;;;6.75;;
34573;SDS011;20809;49.594;8.734;2022-08-19T08:23:36;12.80;;;6.90;;
34573;SDS011;20809;49.594;8.734;2022-08-19T08:26:37;7.82;;;6.32;;
34573;SDS011;20809;49.594;8.734;2022-08-19T08:29:38;12.73;;;6.43;;
34573;SDS011;20809;49.594;8.734;2022-08-19T08:32:41;8.45;;;6.78;;
34573;SDS011;20809;49.594;8.734;2022-08-19T08:35:42;7.82;;;6.38;;
34573;SDS011;20809;49.594;8.734;2022-08-19T08:38:45;7.00;;;6.13;;
34573;SDS011;20809;49.594;8.734;2022-08-19T08:45:30;7.35;;;5.32;;
34573;SDS011;20809;49.594;8.734;2022-08-19T08:48:50;5.68;;;5.18;;
34573;SDS011;20809;49.594;8.734;2022-08-19T08:52:04;5.85;;;5.20;;
34573;SDS011;20809;49.594;8.734;2022-08-19T08:55:17;5.50;;;5.00;;
34573;SDS011;20809;49.594;8.734;2022-08-19T08:58:24;4.90;;;4.40;;
34573;SDS011;20809;49.594;8.734;2022-08-19T09:01:30;7.32;;;5.40;;
34573;SDS011;20809;49.594;8.734;2022-08-19T09:04:31;7.03;;;5.47;;
34573;SDS011;20809;49.594;8.734;2022-08-19T09:07:46;7.72;;;4.97;;
34573;SDS011;20809;49.594;8.734;2022-08-19T09:10:51;5.65;;;5.00;;
34573;SDS011;20809;49.594;8.734;2022-08-19T09:14:00;8.88;;;5.38;;
34573;SDS011;20809;49.594;8.734;2022-08-19T09:17:05;6.07;;;5.38;;
34573;SDS011;20809;49.594;8.734;2022-08-19T09:20:22;4.97;;;4.25;;
34573;SDS011;20809;49.594;8.734;2022-08-19T09:23:23;5.75;;;4.30;;
34573;SDS011;20809;49.594;8.734;2022-08-19T09:26:24;6.13;;;4.70;;
34573;SDS011;20809;49.594;8.734;2022-08-19T09:29:25;5.53;;;5.03;;
34573;SDS011;20809;49.594;8.734;2022-08-19T09:35:28;4.93;;;4.30;;
34573;SDS011;20809;49.594;8.734;2022-08-19T09:38:29;5.93;;;5.18;;
34573;SDS011;20809;49.594;8.734;2022-08-19T09:41:30;5.93;;;5.35;;
34573;SDS011;20809;49.594;8.734;2022-08-19T09:44:31;5.53;;;4.88;;
34573;SDS011;20809;49.594;8.734;2022-08-19T09:47:34;7.40;;;4.60;;
34573;SDS011;20809;49.594;8.734;2022-08-19T09:50:37;6.78;;;4.55;;
34573;SDS011;20809;49.594;8.734;2022-08-19T09:53:38;5.80;;;4.20;;
34573;SDS011;20809;49.594;8.734;2022-08-19T09:56:39;7.82;;;5.18;;
34573;SDS011;20809;49.594;8.734;2022-08-19T10:02:41;5.27;;;4.77;;
34573;SDS011;20809;49.594;8.734;2022-08-19T10:08:49;6.00;;;5.25;;
34573;SDS011;20809;49.594;8.734;2022-08-19T10:11:51;5.30;;;4.72;;
34573;SDS011;20809;49.594;8.734;2022-08-19T10:14:52;9.27;;;5.28;;
34573;SDS011;20809;49.594;8.734;2022-08-19T10:17:54;6.82;;;5.63;;
34573;SDS011;20809;49.594;8.734;2022-08-19T10:21:02;6.32;;;4.25;;
34573;SDS011;20809;49.594;8.734;2022-08-19T10:24:08;4.95;;;3.83;;
34573;SDS011;20809;49.594;8.734;2022-08-19T10:30:09;5.77;;;4.33;;
34573;SDS011;20809;49.594;8.734;2022-08-19T10:33:11;4.10;;;3.70;;
34573;SDS011;20809;49.594;8.734;2022-08-19T10:36:14;4.43;;;4.03;;
34573;SDS011;20809;49.594;8.734;2022-08-19T10:39:20;5.35;;;4.10;;
34573;SDS011;20809;49.594;8.734;2022-08-19T10:45:24;5.40;;;3.42;;
34573;SDS011;20809;49.594;8.734;2022-08-19T10:48:26;5.03;;;4.53;;
34573;SDS011;20809;49.594;8.734;2022-08-19T10:51:27;5.22;;;4.13;;
34573;SDS011;20809;49.594;8.734;2022-08-19T10:54:47;4.72;;;4.25;;
34573;SDS011;20809;49.594;8.734;2022-08-19T10:58:10;5.40;;;4.45;;
34573;SDS011;20809;49.594;8.734;2022-08-19T11:01:13;5.10;;;4.30;;
34573;SDS011;20809;49.594;8.734;2022-08-19T11:07:17;4.07;;;3.78;;
34573;SDS011;20809;49.594;8.734;2022-08-19T11:13:19;5.40;;;4.47;;
34573;SDS011;20809;49.594;8.734;2022-08-19T11:19:22;5.10;;;4.70;;
34573;SDS011;20809;49.594;8.734;2022-08-19T11:22:23;5.00;;;4.38;;
34573;SDS011;20809;49.594;8.734;2022-08-19T11:28:25;5.70;;;4.73;;
34573;SDS011;20809;49.594;8.734;2022-08-19T11:34:30;10.02;;;4.97;;
34573;SDS011;20809;49.594;8.734;2022-08-19T11:37:32;5.63;;;5.22;;
34573;SDS011;20809;49.594;8.734;2022-08-19T11:40:37;5.30;;;4.80;;
34573;SDS011;20809;49.594;8.734;2022-08-19T11:46:40;5.05;;;4.65;;
34573;SDS011;20809;49.594;8.734;2022-08-19T11:49:46;4.82;;;4.43;;
34573;SDS011;20809;49.594;8.734;2022-08-19T11:52:47;4.72;;;4.32;;
34573;SDS011;20809;49.594;8.734;2022-08-19T11:55:50;5.40;;;4.78;;
34573;SDS011;20809;49.594;8.734;2022-08-19T11:58:56;5.18;;;4.60;;
34573;SDS011;20809;49.594;8.734;2022-08-19T12:01:56;5.80;;;5.22;;
34573;SDS011;20809;49.594;8.734;2022-08-19T12:07:58;5.63;;;5.13;;
34573;SDS011;20809;49.594;8.734;2022-08-19T12:10:59;5.30;;;4.82;;
34573;SDS011;20809;49.594;8.734;2022-08-19T12:14:02;6.68;;;6.05;;
34573;SDS011;20809;49.594;8.734;2022-08-19T12:20:06;7.40;;;5.50;;
34573;SDS011;20809;49.594;8.734;2022-08-19T12:23:09;3.65;;;3.45;;
34573;SDS011;20809;49.594;8.734;2022-08-19T12:26:11;5.45;;;4.95;;
34573;SDS011;20809;49.594;8.734;2022-08-19T12:29:11;6.50;;;5.90;;
34573;SDS011;20809;49.594;8.734;2022-08-19T12:35:13;8.80;;;6.63;;
34573;SDS011;20809;49.594;8.734;2022-08-19T12:38:14;7.25;;;6.65;;
34573;SDS011;20809;49.594;8.734;2022-08-19T12:41:15;8.20;;;7.50;;
34573;SDS011;20809;49.594;8.734;2022-08-19T12:44:18;7.55;;;7.03;;
34573;SDS011;20809;49.594;8.734;2022-08-19T12:47:19;8.40;;;7.60;;
34573;SDS011;20809;49.594;8.734;2022-08-19T12:50:21;7.60;;;6.90;;
34573;SDS011;20809;49.594;8.734;2022-08-19T12:53:21;8.48;;;7.78;;
34573;SDS011;20809;49.594;8.734;2022-08-19T12:56:23;7.40;;;6.80;;
34573;SDS011;20809;49.594;8.734;2022-08-19T12:59:23;7.65;;;7.05;;
34573;SDS011;20809;49.594;8.734;2022-08-19T13:02:24;7.40;;;6.32;;
34573;SDS011;20809;49.594;8.734;2022-08-19T13:05:28;7.55;;;6.15;;
34573;SDS011;20809;49.594;8.734;2022-08-19T13:08:31;6.93;;;5.40;;
34573;SDS011;20809;49.594;8.734;2022-08-19T13:11:32;6.60;;;6.10;;
34573;SDS011;20809;49.594;8.734;2022-08-19T13:14:34;5.85;;;5.45;;
34573;SDS011;20809;49.594;8.734;2022-08-19T13:17:35;6.15;;;5.65;;
34573;SDS011;20809;49.594;8.734;2022-08-19T13:20:36;6.55;;;5.95;;
34573;SDS011;20809;49.594;8.734;2022-08-19T13:23:38;6.40;;;5.20;;
34573;SDS011;20809;49.594;8.734;2022-08-19T13:26:40;5.85;;;5.35;;
34573;SDS011;20809;49.594;8.734;2022-08-19T13:29:41;5.90;;;5.38;;
34573;SDS011;20809;49.594;8.734;2022-08-19T13:33:00;4.32;;;3.97;;
34573;SDS011;20809;49.594;8.734;2022-08-19T13:36:11;4.55;;;4.22;;
34573;SDS011;20809;49.594;8.734;2022-08-19T13:39:12;3.95;;;3.65;;
34573;SDS011;20809;49.594;8.734;2022-08-19T13:42:12;4.70;;;4.13;;
34573;SDS011;20809;49.594;8.734;2022-08-19T13:45:15;5.30;;;4.80;;
34573;SDS011;20809;49.594;8.734;2022-08-19T13:48:17;4.30;;;3.90;;
34573;SDS011;20809;49.594;8.734;2022-08-19T13:51:18;4.03;;;3.72;;
34573;SDS011;20809;49.594;8.734;2022-08-19T13:57:20;3.65;;;3.40;;
34573;SDS011;20809;49.594;8.734;2022-08-19T14:00:22;3.92;;;3.63;;
34573;SDS011;20809;49.594;8.734;2022-08-19T14:03:35;8.90;;;4.55;;
34573;SDS011;20809;49.594;8.734;2022-08-19T14:06:36;4.60;;;4.20;;
34573;SDS011;20809;49.594;8.734;2022-08-19T14:09:37;5.97;;;4.25;;
34573;SDS011;20809;49.594;8.734;2022-08-19T14:12:38;3.72;;;3.47;;
34573;SDS011;20809;49.594;8.734;2022-08-19T14:15:39;4.22;;;3.83;;
34573;SDS011;20809;49.594;8.734;2022-08-19T14:18:40;4.65;;;4.20;;
34573;SDS011;20809;49.594;8.734;2022-08-19T14:21:41;4.40;;;4.10;;
34573;SDS011;20809;49.594;8.734;2022-08-19T14:24:42;4.65;;;4.30;;
34573;SDS011;20809;49.594;8.734;2022-08-19T14:27:43;7.32;;;4.78;;
34573;SDS011;20809;49.594;8.734;2022-08-19T14:30:44;5.35;;;4.95;;
34573;SDS011;20809;49.594;8.734;2022-08-19T14:33:46;4.30;;;3.90;;
34573;SDS011;20809;49.594;8.734;2022-08-19T14:36:47;4.22;;;3.90;;
34573;SDS011;20809;49.594;8.734;2022-08-19T14:39:48;5.22;;;4.60;;
34573;SDS011;20809;49.594;8.734;2022-08-19T14:42:48;5.70;;;4.57;;
34573;SDS011;20809;49.594;8.734;2022-08-19T14:45:49;4.85;;;4.55;;
34573;SDS011;20809;49.594;8.734;2022-08-19T14:48:50;4.82;;;4.53;;
34573;SDS011;20809;49.594;8.734;2022-08-19T14:51:51;5.07;;;4.57;;
34573;SDS011;20809;49.594;8.734;2022-08-19T14:54:52;5.00;;;4.57;;
34573;SDS011;20809;49.594;8.734;2022-08-19T14:57:53;5.13;;;4.82;;
34573;SDS011;20809;49.594;8.734;2022-08-19T15:00:54;5.07;;;4.35;;
34573;SDS011;20809;49.594;8.734;2022-08-19T15:03:54;4.90;;;4.50;;
34573;SDS011;20809;49.594;8.734;2022-08-19T15:06:55;4.72;;;4.32;;
34573;SDS011;20809;49.594;8.734;2022-08-19T15:09:56;4.85;;;4.18;;
34573;SDS011;20809;49.594;8.734;2022-08-19T15:12:57;4.70;;;4.30;;
34573;SDS011;20809;49.594;8.734;2022-08-19T15:15:59;5.45;;;4.95;;
34573;SDS011;20809;49.594;8.734;2022-08-19T15:19:00;4.97;;;4.22;;
34573;SDS011;20809;49.594;8.734;2022-08-19T15:22:01;4.07;;;3.78;;
34573;SDS011;20809;49.594;8.734;2022-08-19T15:25:03;4.50;;;4.10;;
34573;SDS011;20809;49.594;8.734;2022-08-19T15:28:05;4.20;;;3.90;;
34573;SDS011;20809;49.594;8.734;2022-08-19T15:31:05;4.20;;;3.80;;
34573;SDS011;20809;49.594;8.734;2022-08-19T15:34:06;4.18;;;3.88;;
34573;SDS011;20809;49.594;8.734;2022-08-19T15:37:07;4.20;;;3.90;;
34573;SDS011;20809;49.594;8.734;2022-08-19T15:40:08;4.10;;;3.80;;
34573;SDS011;20809;49.594;8.734;2022-08-19T15:43:11;3.50;;;3.20;;
34573;SDS011;20809;49.594;8.734;2022-08-19T15:46:16;5.03;;;3.13;;
34573;SDS011;20809;49.594;8.734;2022-08-19T15:49:18;3.92;;;3.47;;
34573;SDS011;20809;49.594;8.734;2022-08-19T15:52:20;4.10;;;3.70;;
34573;SDS011;20809;49.594;8.734;2022-08-19T15:55:22;5.80;;;3.70;;
34573;SDS011;20809;49.594;8.734;2022-08-19T15:58:25;4.05;;;3.70;;
34573;SDS011;20809;49.594;8.734;2022-08-19T16:01:55;3.47;;;3.22;;
34573;SDS011;20809;49.594;8.734;2022-08-19T16:05:16;3.97;;;3.75;;
34573;SDS011;20809;49.594;8.734;2022-08-19T16:08:38;3.42;;;3.13;;
34573;SDS011;20809;49.594;8.734;2022-08-19T16:14:41;3.33;;;3.13;;
34573;SDS011;20809;49.594;8.734;2022-08-19T16:20:43;3.00;;;2.80;;
34573;SDS011;20809;49.594;8.734;2022-08-19T16:23:45;4.05;;;3.65;;
34573;SDS011;20809;49.594;8.734;2022-08-19T16:26:47;3.95;;;3.38;;
34573;SDS011;20809;49.594;8.734;2022-08-19T16:32:49;4.28;;;3.92;;
34573;SDS011;20809;49.594;8.734;2022-08-19T16:38:51;5.10;;;3.60;;
34573;SDS011;20809;49.594;8.734;2022-08-19T16:41:52;4.28;;;3.92;;
34573;SDS011;20809;49.594;8.734;2022-08-19T16:47:53;3.97;;;3.67;;
34573;SDS011;20809;49.594;8.734;2022-08-19T16:50:56;7.45;;;3.58;;
34573;SDS011;20809;49.594;8.734;2022-08-19T16:53:59;4.63;;;4.18;;
34573;SDS011;20809;49.594;8.734;2022-08-19T16:57:00;4.68;;;3.97;;
34573;SDS011;20809;49.594;8.734;2022-08-19T17:00:03;3.88;;;3.58;;
34573;SDS011;20809;49.594;8.734;2022-08-19T17:03:09;4.10;;;3.80;;
34573;SDS011;20809;49.594;8.734;2022-08-19T17:06:12;3.53;;;3.22;;
34573;SDS011;20809;49.594;8.734;2022-08-19T17:09:15;4.15;;;3.75;;
34573;SDS011;20809;49.594;8.734;2022-08-19T17:12:17;3.90;;;3.55;;
34573;SDS011;20809;49.594;8.734;2022-08-19T17:18:19;4.25;;;3.95;;
34573;SDS011;20809;49.594;8.734;2022-08-19T17:21:22;4.00;;;3.70;;
34573;SDS011;20809;49.594;8.734;2022-08-19T17:24:26;4.15;;;3.85;;
34573;SDS011;20809;49.594;8.734;2022-08-19T17:30:28;7.63;;;4.13;;
34573;SDS011;20809;49.594;8.734;2022-08-19T17:33:30;4.00;;;3.70;;
34573;SDS011;20809;49.594;8.734;2022-08-19T17:39:32;4.15;;;3.78;;
34573;SDS011;20809;49.594;8.734;2022-08-19T17:42:34;3.83;;;3.53;;
34573;SDS011;20809;49.594;8.734;2022-08-19T17:45:36;4.15;;;3.75;;
34573;SDS011;20809;49.594;8.734;2022-08-19T17:48:37;4.28;;;3.88;;
34573;SDS011;20809;49.594;8.734;2022-08-19T17:54:44;7.80;;;4.10;;
34573;SDS011;20809;49.594;8.734;2022-08-19T17:57:45;4.15;;;3.83;;
34573;SDS011;20809;49.594;8.734;2022-08-19T18:03:47;4.53;;;4.13;;
34573;SDS011;20809;49.594;8.734;2022-08-19T18:06:48;7.47;;;4.53;;
34573;SDS011;20809;49.594;8.734;2022-08-19T18:12:51;4.40;;;4.00;;
34573;SDS011;20809;49.594;8.734;2022-08-19T18:15:52;5.32;;;4.30;;
34573;SDS011;20809;49.594;8.734;2022-08-19T18:18:53;4.80;;;4.40;;
34573;SDS011;20809;49.594;8.734;2022-08-19T18:24:55;5.43;;;4.95;;
34573;SDS011;20809;49.594;8.734;2022-08-19T18:27:58;4.47;;;3.97;;
34573;SDS011;20809;49.594;8.734;2022-08-19T18:31:00;5.00;;;4.32;;
34573;SDS011;20809;49.594;8.734;2022-08-19T18:34:03;4.40;;;4.00;;
34573;SDS011;20809;49.594;8.734;2022-08-19T18:37:05;4.22;;;3.92;;
34573;SDS011;20809;49.594;8.734;2022-08-19T18:40:28;4.32;;;3.92;;
34573;SDS011;20809;49.594;8.734;2022-08-19T18:43:47;5.00;;;4.25;;
34573;SDS011;20809;49.594;8.734;2022-08-19T18:47:06;5.75;;;4.15;;
34573;SDS011;20809;49.594;8.734;2022-08-19T18:50:25;4.88;;;4.32;;
34573;SDS011;20809;49.594;8.734;2022-08-19T18:53:28;5.43;;;4.97;;
34573;SDS011;20809;49.594;8.734;2022-08-19T18:56:31;4.63;;;4.22;;
34573;SDS011;20809;49.594;8.734;2022-08-19T18:59:32;4.68;;;4.30;;
34573;SDS011;20809;49.594;8.734;2022-08-19T19:02:35;5.10;;;4.60;;
34573;SDS011;20809;49.594;8.734;2022-08-19T19:05:40;6.93;;;4.20;;
34573;SDS011;20809;49.594;8.734;2022-08-19T19:08:41;5.05;;;4.40;;
34573;SDS011;20809;49.594;8.734;2022-08-19T19:11:42;6.93;;;4.88;;
34573;SDS011;20809;49.594;8.734;2022-08-19T19:14:44;4.57;;;4.18;;
34573;SDS011;20809;49.594;8.734;2022-08-19T19:17:45;5.68;;;5.10;;
34573;SDS011;20809;49.594;8.734;2022-08-19T19:20:46;5.32;;;4.82;;
34573;SDS011;20809;49.594;8.734;2022-08-19T19:23:47;5.43;;;4.50;;
34573;SDS011;20809;49.594;8.734;2022-08-19T19:26:49;4.93;;;4.43;;
34573;SDS011;20809;49.594;8.734;2022-08-19T19:29:51;5.05;;;4.63;;
34573;SDS011;20809;49.594;8.734;2022-08-19T19:32:55;4.13;;;3.83;;
34573;SDS011;20809;49.594;8.734;2022-08-19T19:35:56;5.15;;;4.65;;
34573;SDS011;20809;49.594;8.734;2022-08-19T19:38:57;5.05;;;4.53;;
34573;SDS011;20809;49.594;8.734;2022-08-19T19:41:58;4.78;;;4.35;;
34573;SDS011;20809;49.594;8.734;2022-08-19T19:44:58;5.28;;;4.10;;
34573;SDS011;20809;49.594;8.734;2022-08-19T19:48:02;5.55;;;3.88;;
34573;SDS011;20809;49.594;8.734;2022-08-19T19:51:03;4.82;;;4.35;;
34573;SDS011;20809;49.594;8.734;2022-08-19T19:54:05;5.78;;;4.13;;
34573;SDS011;20809;49.594;8.734;2022-08-19T19:57:07;6.00;;;4.78;;